sensor_id;sensor_type;location;lat;lon;timestamp;P1;durP1;ratioP1;P2;durP2;ratioP2
43626;SDS011;29217;52.586;13.442;2023-09-19T00:00:18;5.45;;;2.33;;
43626;SDS011;29217;52.586;13.442;2023-09-19T00:02:54;2.97;;;1.80;;
43626;SDS011;29217;52.586;13.442;2023-09-19T00:05:24;3.35;;;1.83;;
43626;SDS011;29217;52.586;13.442;2023-09-19T00:07:52;7.85;;;1.92;;
43626;SDS011;29217;52.586;13.442;2023-09-19T00:10:22;2.92;;;1.92;;
43626;SDS011;29217;52.586;13.442;2023-09-19T00:12:49;7.47;;;2.00;;
43626;SDS011;29217;52.586;13.442;2023-09-19T00:15:17;4.93;;;1.60;;
43626;SDS011;29217;52.586;13.442;2023-09-19T00:17:43;3.75;;;1.75;;
43626;SDS011;29217;52.586;13.442;2023-09-19T00:20:08;5.60;;;1.92;;
43626;SDS011;29217;52.586;13.442;2023-09-19T00:22:40;2.45;;;1.60;;
43626;SDS011;29217;52.586;13.442;2023-09-19T00:25:10;6.53;;;1.92;;
43626;SDS011;29217;52.586;13.442;2023-09-19T00:27:39;5.28;;;1.70;;
43626;SDS011;29217;52.586;13.442;2023-09-19T00:30:06;5.95;;;2.08;;
43626;SDS011;29217;52.586;13.442;2023-09-19T00:32:34;4.03;;;1.75;;
43626;SDS011;29217;52.586;13.442;2023-09-19T00:34:59;3.38;;;1.70;;
43626;SDS011;29217;52.586;13.442;2023-09-19T00:37:25;3.83;;;1.73;;
43626;SDS011;29217;52.586;13.442;2023-09-19T00:39:50;5.45;;;1.70;;
43626;SDS011;29217;52.586;13.442;2023-09-19T00:42:20;3.42;;;1.90;;
43626;SDS011;29217;52.586;13.442;2023-09-19T00:44:46;6.07;;;2.22;;
43626;SDS011;29217;52.586;13.442;2023-09-19T00:47:16;3.67;;;1.63;;
43626;SDS011;29217;52.586;13.442;2023-09-19T00:49:45;4.25;;;1.88;;
43626;SDS011;29217;52.586;13.442;2023-09-19T00:52:17;4.68;;;2.00;;
43626;SDS011;29217;52.586;13.442;2023-09-19T00:54:46;5.85;;;1.83;;
43626;SDS011;29217;52.586;13.442;2023-09-19T00:57:13;4.75;;;1.88;;
43626;SDS011;29217;52.586;13.442;2023-09-19T00:59:40;5.00;;;1.83;;
43626;SDS011;29217;52.586;13.442;2023-09-19T01:02:07;4.97;;;2.00;;
43626;SDS011;29217;52.586;13.442;2023-09-19T01:04:33;3.60;;;1.70;;
43626;SDS011;29217;52.586;13.442;2023-09-19T01:06:59;3.83;;;1.90;;
43626;SDS011;29217;52.586;13.442;2023-09-19T01:09:25;3.65;;;1.83;;
43626;SDS011;29217;52.586;13.442;2023-09-19T01:11:52;3.83;;;2.08;;
43626;SDS011;29217;52.586;13.442;2023-09-19T01:14:29;5.70;;;2.10;;
43626;SDS011;29217;52.586;13.442;2023-09-19T01:17:01;5.20;;;2.10;;
43626;SDS011;29217;52.586;13.442;2023-09-19T01:22:42;3.70;;;1.90;;
43626;SDS011;29217;52.586;13.442;2023-09-19T01:28:20;5.18;;;1.90;;
43626;SDS011;29217;52.586;13.442;2023-09-19T01:30:57;4.25;;;1.90;;
43626;SDS011;29217;52.586;13.442;2023-09-19T01:33:26;3.13;;;1.70;;
43626;SDS011;29217;52.586;13.442;2023-09-19T01:35:52;5.65;;;2.08;;
43626;SDS011;29217;52.586;13.442;2023-09-19T01:38:22;4.47;;;1.63;;
43626;SDS011;29217;52.586;13.442;2023-09-19T01:40:53;4.20;;;2.17;;
43626;SDS011;29217;52.586;13.442;2023-09-19T01:43:32;3.35;;;1.83;;
43626;SDS011;29217;52.586;13.442;2023-09-19T01:51:07;4.85;;;1.90;;
43626;SDS011;29217;52.586;13.442;2023-09-19T01:53:36;3.33;;;1.90;;
43626;SDS011;29217;52.586;13.442;2023-09-19T01:56:32;5.05;;;1.80;;
43626;SDS011;29217;52.586;13.442;2023-09-19T01:59:16;5.65;;;1.98;;
43626;SDS011;29217;52.586;13.442;2023-09-19T02:01:48;2.97;;;1.60;;
43626;SDS011;29217;52.586;13.442;2023-09-19T02:04:17;2.38;;;1.80;;
43626;SDS011;29217;52.586;13.442;2023-09-19T02:06:42;6.50;;;2.00;;
43626;SDS011;29217;52.586;13.442;2023-09-19T02:09:08;4.25;;;1.80;;
43626;SDS011;29217;52.586;13.442;2023-09-19T02:11:34;4.05;;;1.70;;
43626;SDS011;29217;52.586;13.442;2023-09-19T02:14:01;6.47;;;2.15;;
43626;SDS011;29217;52.586;13.442;2023-09-19T02:16:27;2.90;;;1.80;;
43626;SDS011;29217;52.586;13.442;2023-09-19T02:18:53;3.20;;;1.77;;
43626;SDS011;29217;52.586;13.442;2023-09-19T02:21:19;4.90;;;1.85;;
43626;SDS011;29217;52.586;13.442;2023-09-19T02:23:46;4.70;;;1.70;;
43626;SDS011;29217;52.586;13.442;2023-09-19T02:26:13;4.53;;;1.55;;
43626;SDS011;29217;52.586;13.442;2023-09-19T02:28:39;3.55;;;1.65;;
43626;SDS011;29217;52.586;13.442;2023-09-19T02:31:05;2.78;;;1.58;;
43626;SDS011;29217;52.586;13.442;2023-09-19T02:33:30;2.95;;;1.80;;
43626;SDS011;29217;52.586;13.442;2023-09-19T02:35:57;2.92;;;1.75;;
43626;SDS011;29217;52.586;13.442;2023-09-19T02:38:24;5.03;;;1.80;;
43626;SDS011;29217;52.586;13.442;2023-09-19T02:40:51;3.47;;;1.80;;
43626;SDS011;29217;52.586;13.442;2023-09-19T02:43:17;3.38;;;1.92;;
43626;SDS011;29217;52.586;13.442;2023-09-19T02:45:44;2.63;;;1.98;;
43626;SDS011;29217;52.586;13.442;2023-09-19T02:48:11;6.68;;;1.70;;
43626;SDS011;29217;52.586;13.442;2023-09-19T02:50:37;3.17;;;1.70;;
43626;SDS011;29217;52.586;13.442;2023-09-19T02:53:05;5.07;;;2.00;;
43626;SDS011;29217;52.586;13.442;2023-09-19T02:55:31;4.47;;;2.03;;
43626;SDS011;29217;52.586;13.442;2023-09-19T02:57:57;4.22;;;1.98;;
43626;SDS011;29217;52.586;13.442;2023-09-19T03:00:23;5.10;;;2.40;;
43626;SDS011;29217;52.586;13.442;2023-09-19T03:05:16;6.50;;;2.10;;
43626;SDS011;29217;52.586;13.442;2023-09-19T03:07:43;5.18;;;1.80;;
43626;SDS011;29217;52.586;13.442;2023-09-19T03:10:10;7.10;;;1.85;;
43626;SDS011;29217;52.586;13.442;2023-09-19T03:12:36;3.60;;;2.03;;
43626;SDS011;29217;52.586;13.442;2023-09-19T03:15:03;3.92;;;2.00;;
43626;SDS011;29217;52.586;13.442;2023-09-19T03:17:33;3.75;;;2.00;;
43626;SDS011;29217;52.586;13.442;2023-09-19T03:19:59;6.40;;;2.20;;
43626;SDS011;29217;52.586;13.442;2023-09-19T03:22:26;4.35;;;1.65;;
43626;SDS011;29217;52.586;13.442;2023-09-19T03:25:03;4.25;;;2.10;;
43626;SDS011;29217;52.586;13.442;2023-09-19T03:27:33;2.50;;;1.55;;
43626;SDS011;29217;52.586;13.442;2023-09-19T03:29:59;2.20;;;1.50;;
43626;SDS011;29217;52.586;13.442;2023-09-19T03:32:25;5.38;;;1.70;;
43626;SDS011;29217;52.586;13.442;2023-09-19T03:34:51;4.63;;;1.50;;
43626;SDS011;29217;52.586;13.442;2023-09-19T03:37:17;1.67;;;1.30;;
43626;SDS011;29217;52.586;13.442;2023-09-19T03:39:43;5.55;;;1.50;;
43626;SDS011;29217;52.586;13.442;2023-09-19T03:42:08;2.03;;;1.15;;
43626;SDS011;29217;52.586;13.442;2023-09-19T03:44:34;2.13;;;1.25;;
43626;SDS011;29217;52.586;13.442;2023-09-19T03:47:00;1.30;;;1.00;;
43626;SDS011;29217;52.586;13.442;2023-09-19T03:49:26;1.77;;;1.10;;
43626;SDS011;29217;52.586;13.442;2023-09-19T03:51:51;3.25;;;1.38;;
43626;SDS011;29217;52.586;13.442;2023-09-19T03:54:17;2.05;;;1.00;;
43626;SDS011;29217;52.586;13.442;2023-09-19T03:56:44;2.25;;;1.20;;
43626;SDS011;29217;52.586;13.442;2023-09-19T03:59:10;2.88;;;1.25;;
43626;SDS011;29217;52.586;13.442;2023-09-19T04:01:37;2.83;;;1.40;;
43626;SDS011;29217;52.586;13.442;2023-09-19T04:04:02;2.55;;;1.63;;
43626;SDS011;29217;52.586;13.442;2023-09-19T04:06:36;6.60;;;1.42;;
43626;SDS011;29217;52.586;13.442;2023-09-19T04:09:02;3.30;;;1.40;;
43626;SDS011;29217;52.586;13.442;2023-09-19T04:11:28;2.15;;;1.40;;
43626;SDS011;29217;52.586;13.442;2023-09-19T04:13:58;1.33;;;1.15;;
43626;SDS011;29217;52.586;13.442;2023-09-19T04:16:24;2.53;;;1.40;;
43626;SDS011;29217;52.586;13.442;2023-09-19T04:18:49;3.83;;;1.35;;
43626;SDS011;29217;52.586;13.442;2023-09-19T04:21:15;2.03;;;1.15;;
43626;SDS011;29217;52.586;13.442;2023-09-19T04:23:41;2.17;;;1.20;;
43626;SDS011;29217;52.586;13.442;2023-09-19T04:26:07;2.42;;;1.23;;
43626;SDS011;29217;52.586;13.442;2023-09-19T04:28:33;4.10;;;1.20;;
43626;SDS011;29217;52.586;13.442;2023-09-19T04:30:59;3.70;;;1.60;;
43626;SDS011;29217;52.586;13.442;2023-09-19T04:33:25;1.90;;;1.23;;
43626;SDS011;29217;52.586;13.442;2023-09-19T04:35:54;2.20;;;1.50;;
43626;SDS011;29217;52.586;13.442;2023-09-19T04:38:20;3.08;;;1.35;;
43626;SDS011;29217;52.586;13.442;2023-09-19T04:40:46;3.70;;;1.50;;
43626;SDS011;29217;52.586;13.442;2023-09-19T04:43:12;2.55;;;1.45;;
43626;SDS011;29217;52.586;13.442;2023-09-19T04:45:38;4.15;;;1.45;;
43626;SDS011;29217;52.586;13.442;2023-09-19T04:48:05;3.63;;;1.58;;
43626;SDS011;29217;52.586;13.442;2023-09-19T04:50:34;2.97;;;1.83;;
43626;SDS011;29217;52.586;13.442;2023-09-19T04:52:59;4.68;;;1.75;;
43626;SDS011;29217;52.586;13.442;2023-09-19T04:55:26;5.20;;;1.75;;
43626;SDS011;29217;52.586;13.442;2023-09-19T04:57:51;4.55;;;1.88;;
43626;SDS011;29217;52.586;13.442;2023-09-19T05:00:21;2.47;;;1.52;;
43626;SDS011;29217;52.586;13.442;2023-09-19T05:02:49;2.20;;;1.48;;
43626;SDS011;29217;52.586;13.442;2023-09-19T05:05:16;3.97;;;1.70;;
43626;SDS011;29217;52.586;13.442;2023-09-19T05:07:44;4.35;;;1.70;;
43626;SDS011;29217;52.586;13.442;2023-09-19T05:10:11;3.40;;;1.70;;
43626;SDS011;29217;52.586;13.442;2023-09-19T05:12:37;4.97;;;1.77;;
43626;SDS011;29217;52.586;13.442;2023-09-19T05:15:03;3.50;;;1.90;;
43626;SDS011;29217;52.586;13.442;2023-09-19T05:17:30;3.67;;;1.70;;
43626;SDS011;29217;52.586;13.442;2023-09-19T05:19:56;3.17;;;1.85;;
43626;SDS011;29217;52.586;13.442;2023-09-19T05:22:23;2.47;;;1.67;;
43626;SDS011;29217;52.586;13.442;2023-09-19T05:24:51;6.25;;;1.58;;
43626;SDS011;29217;52.586;13.442;2023-09-19T05:27:17;3.88;;;1.90;;
43626;SDS011;29217;52.586;13.442;2023-09-19T05:29:46;3.50;;;1.40;;
43626;SDS011;29217;52.586;13.442;2023-09-19T05:32:12;2.40;;;1.30;;
43626;SDS011;29217;52.586;13.442;2023-09-19T05:34:38;5.45;;;1.90;;
43626;SDS011;29217;52.586;13.442;2023-09-19T05:37:04;2.15;;;1.48;;
43626;SDS011;29217;52.586;13.442;2023-09-19T05:39:32;3.13;;;1.65;;
43626;SDS011;29217;52.586;13.442;2023-09-19T05:41:58;4.88;;;1.88;;
43626;SDS011;29217;52.586;13.442;2023-09-19T05:44:25;4.78;;;1.70;;
43626;SDS011;29217;52.586;13.442;2023-09-19T05:46:50;5.05;;;1.60;;
43626;SDS011;29217;52.586;13.442;2023-09-19T05:49:16;2.90;;;1.73;;
43626;SDS011;29217;52.586;13.442;2023-09-19T05:51:42;3.65;;;1.80;;
43626;SDS011;29217;52.586;13.442;2023-09-19T05:54:08;2.55;;;1.80;;
43626;SDS011;29217;52.586;13.442;2023-09-19T05:56:34;5.97;;;1.63;;
43626;SDS011;29217;52.586;13.442;2023-09-19T05:58:59;3.22;;;1.80;;
43626;SDS011;29217;52.586;13.442;2023-09-19T06:01:25;3.40;;;1.95;;
43626;SDS011;29217;52.586;13.442;2023-09-19T06:03:52;3.08;;;2.20;;
43626;SDS011;29217;52.586;13.442;2023-09-19T06:06:18;3.30;;;2.33;;
43626;SDS011;29217;52.586;13.442;2023-09-19T06:08:44;4.88;;;2.15;;
43626;SDS011;29217;52.586;13.442;2023-09-19T06:11:09;2.15;;;1.52;;
43626;SDS011;29217;52.586;13.442;2023-09-19T06:13:35;5.93;;;2.20;;
43626;SDS011;29217;52.586;13.442;2023-09-19T06:16:04;4.95;;;1.70;;
43626;SDS011;29217;52.586;13.442;2023-09-19T06:18:30;2.58;;;1.60;;
43626;SDS011;29217;52.586;13.442;2023-09-19T06:20:58;3.55;;;1.80;;
43626;SDS011;29217;52.586;13.442;2023-09-19T06:23:24;5.25;;;1.60;;
43626;SDS011;29217;52.586;13.442;2023-09-19T06:25:52;12.85;;;1.58;;
43626;SDS011;29217;52.586;13.442;2023-09-19T06:28:18;3.30;;;1.80;;
43626;SDS011;29217;52.586;13.442;2023-09-19T06:30:48;5.32;;;2.20;;
43626;SDS011;29217;52.586;13.442;2023-09-19T06:33:14;3.15;;;1.63;;
43626;SDS011;29217;52.586;13.442;2023-09-19T06:35:40;3.47;;;1.90;;
43626;SDS011;29217;52.586;13.442;2023-09-19T06:38:07;5.45;;;2.35;;
43626;SDS011;29217;52.586;13.442;2023-09-19T06:40:33;4.65;;;1.90;;
43626;SDS011;29217;52.586;13.442;2023-09-19T06:42:59;9.15;;;2.22;;
43626;SDS011;29217;52.586;13.442;2023-09-19T06:45:26;5.38;;;1.65;;
43626;SDS011;29217;52.586;13.442;2023-09-19T06:47:52;3.80;;;1.83;;
43626;SDS011;29217;52.586;13.442;2023-09-19T06:50:22;3.60;;;1.80;;
43626;SDS011;29217;52.586;13.442;2023-09-19T06:52:49;5.82;;;1.95;;
43626;SDS011;29217;52.586;13.442;2023-09-19T06:55:17;5.97;;;1.70;;
43626;SDS011;29217;52.586;13.442;2023-09-19T06:57:44;10.20;;;1.75;;
43626;SDS011;29217;52.586;13.442;2023-09-19T07:00:13;5.57;;;1.95;;
43626;SDS011;29217;52.586;13.442;2023-09-19T07:02:59;5.20;;;2.20;;
43626;SDS011;29217;52.586;13.442;2023-09-19T07:05:36;2.97;;;2.03;;
43626;SDS011;29217;52.586;13.442;2023-09-19T07:08:04;7.38;;;2.17;;
43626;SDS011;29217;52.586;13.442;2023-09-19T07:10:33;5.50;;;2.30;;
43626;SDS011;29217;52.586;13.442;2023-09-19T07:13:00;8.27;;;2.00;;
43626;SDS011;29217;52.586;13.442;2023-09-19T07:15:28;4.40;;;2.00;;
43626;SDS011;29217;52.586;13.442;2023-09-19T07:17:55;3.40;;;1.77;;
43626;SDS011;29217;52.586;13.442;2023-09-19T07:20:21;6.93;;;2.55;;
43626;SDS011;29217;52.586;13.442;2023-09-19T07:22:50;4.30;;;2.00;;
43626;SDS011;29217;52.586;13.442;2023-09-19T07:25:16;4.72;;;2.00;;
43626;SDS011;29217;52.586;13.442;2023-09-19T07:27:42;3.92;;;1.73;;
43626;SDS011;29217;52.586;13.442;2023-09-19T07:30:08;5.97;;;1.45;;
43626;SDS011;29217;52.586;13.442;2023-09-19T07:32:34;3.08;;;1.70;;
43626;SDS011;29217;52.586;13.442;2023-09-19T07:35:01;7.90;;;1.90;;
43626;SDS011;29217;52.586;13.442;2023-09-19T07:37:29;5.88;;;1.70;;
43626;SDS011;29217;52.586;13.442;2023-09-19T07:39:56;3.95;;;1.90;;
43626;SDS011;29217;52.586;13.442;2023-09-19T07:42:21;7.00;;;1.90;;
43626;SDS011;29217;52.586;13.442;2023-09-19T07:44:47;5.50;;;1.80;;
43626;SDS011;29217;52.586;13.442;2023-09-19T07:47:15;2.75;;;1.60;;
43626;SDS011;29217;52.586;13.442;2023-09-19T07:49:41;9.55;;;2.15;;
43626;SDS011;29217;52.586;13.442;2023-09-19T07:52:08;4.00;;;2.00;;
43626;SDS011;29217;52.586;13.442;2023-09-19T07:54:35;4.50;;;1.88;;
43626;SDS011;29217;52.586;13.442;2023-09-19T07:57:01;6.75;;;2.03;;
43626;SDS011;29217;52.586;13.442;2023-09-19T07:59:27;3.80;;;1.52;;
43626;SDS011;29217;52.586;13.442;2023-09-19T08:01:53;4.70;;;1.75;;
43626;SDS011;29217;52.586;13.442;2023-09-19T08:04:19;6.22;;;2.00;;
43626;SDS011;29217;52.586;13.442;2023-09-19T08:06:44;4.88;;;2.35;;
43626;SDS011;29217;52.586;13.442;2023-09-19T08:09:10;7.57;;;2.10;;
43626;SDS011;29217;52.586;13.442;2023-09-19T08:11:39;6.97;;;2.00;;
43626;SDS011;29217;52.586;13.442;2023-09-19T08:14:04;4.57;;;1.70;;
43626;SDS011;29217;52.586;13.442;2023-09-19T08:16:32;3.50;;;2.00;;
43626;SDS011;29217;52.586;13.442;2023-09-19T08:18:58;5.45;;;2.33;;
43626;SDS011;29217;52.586;13.442;2023-09-19T08:21:23;5.63;;;2.33;;
43626;SDS011;29217;52.586;13.442;2023-09-19T08:23:50;3.08;;;2.03;;
43626;SDS011;29217;52.586;13.442;2023-09-19T08:26:16;4.43;;;1.70;;
43626;SDS011;29217;52.586;13.442;2023-09-19T08:28:42;4.15;;;1.90;;
43626;SDS011;29217;52.586;13.442;2023-09-19T08:31:08;4.45;;;1.70;;
43626;SDS011;29217;52.586;13.442;2023-09-19T08:33:34;5.30;;;1.85;;
43626;SDS011;29217;52.586;13.442;2023-09-19T08:36:03;4.80;;;1.65;;
43626;SDS011;29217;52.586;13.442;2023-09-19T08:38:33;3.97;;;2.00;;
43626;SDS011;29217;52.586;13.442;2023-09-19T08:41:00;6.43;;;1.73;;
43626;SDS011;29217;52.586;13.442;2023-09-19T08:43:30;8.73;;;2.35;;
43626;SDS011;29217;52.586;13.442;2023-09-19T08:46:03;10.77;;;3.42;;
43626;SDS011;29217;52.586;13.442;2023-09-19T08:48:33;7.95;;;2.45;;
43626;SDS011;29217;52.586;13.442;2023-09-19T08:51:03;6.68;;;2.20;;
43626;SDS011;29217;52.586;13.442;2023-09-19T08:56:04;7.05;;;2.13;;
43626;SDS011;29217;52.586;13.442;2023-09-19T08:58:34;4.10;;;2.45;;
43626;SDS011;29217;52.586;13.442;2023-09-19T09:01:13;5.10;;;2.38;;
43626;SDS011;29217;52.586;13.442;2023-09-19T09:03:40;8.95;;;2.47;;
43626;SDS011;29217;52.586;13.442;2023-09-19T09:06:13;6.05;;;2.00;;
43626;SDS011;29217;52.586;13.442;2023-09-19T09:08:40;5.00;;;2.47;;
43626;SDS011;29217;52.586;13.442;2023-09-19T09:11:06;6.95;;;2.05;;
43626;SDS011;29217;52.586;13.442;2023-09-19T09:13:33;9.25;;;2.20;;
43626;SDS011;29217;52.586;13.442;2023-09-19T09:16:01;3.97;;;1.95;;
43626;SDS011;29217;52.586;13.442;2023-09-19T09:18:28;4.93;;;2.17;;
43626;SDS011;29217;52.586;13.442;2023-09-19T09:20:54;5.13;;;2.35;;
43626;SDS011;29217;52.586;13.442;2023-09-19T09:23:21;5.40;;;2.00;;
43626;SDS011;29217;52.586;13.442;2023-09-19T09:25:53;8.73;;;2.20;;
43626;SDS011;29217;52.586;13.442;2023-09-19T09:28:20;6.43;;;2.15;;
43626;SDS011;29217;52.586;13.442;2023-09-19T09:30:47;5.10;;;2.00;;
43626;SDS011;29217;52.586;13.442;2023-09-19T09:33:14;3.42;;;1.92;;
43626;SDS011;29217;52.586;13.442;2023-09-19T09:35:50;12.90;;;2.30;;
43626;SDS011;29217;52.586;13.442;2023-09-19T09:38:27;12.13;;;2.13;;
43626;SDS011;29217;52.586;13.442;2023-09-19T09:41:14;5.50;;;1.98;;
43626;SDS011;29217;52.586;13.442;2023-09-19T09:43:52;9.02;;;2.10;;
43626;SDS011;29217;52.586;13.442;2023-09-19T09:46:19;8.82;;;2.30;;
43626;SDS011;29217;52.586;13.442;2023-09-19T09:48:46;10.10;;;2.28;;
43626;SDS011;29217;52.586;13.442;2023-09-19T09:51:41;4.93;;;2.30;;
43626;SDS011;29217;52.586;13.442;2023-09-19T09:54:11;8.02;;;2.35;;
43626;SDS011;29217;52.586;13.442;2023-09-19T09:59:54;12.52;;;2.38;;
43626;SDS011;29217;52.586;13.442;2023-09-19T10:02:30;5.60;;;2.50;;
43626;SDS011;29217;52.586;13.442;2023-09-19T10:07:53;9.55;;;2.60;;
43626;SDS011;29217;52.586;13.442;2023-09-19T10:13:06;8.70;;;2.30;;
43626;SDS011;29217;52.586;13.442;2023-09-19T10:15:37;7.47;;;2.45;;
43626;SDS011;29217;52.586;13.442;2023-09-19T10:18:06;11.75;;;2.70;;
43626;SDS011;29217;52.586;13.442;2023-09-19T10:20:43;4.50;;;2.00;;
43626;SDS011;29217;52.586;13.442;2023-09-19T10:23:10;4.68;;;2.08;;
43626;SDS011;29217;52.586;13.442;2023-09-19T10:25:41;4.97;;;2.42;;
43626;SDS011;29217;52.586;13.442;2023-09-19T10:28:11;8.88;;;2.40;;
43626;SDS011;29217;52.586;13.442;2023-09-19T10:30:42;9.90;;;2.65;;
43626;SDS011;29217;52.586;13.442;2023-09-19T10:33:18;5.90;;;2.50;;
43626;SDS011;29217;52.586;13.442;2023-09-19T10:35:47;8.00;;;2.58;;
43626;SDS011;29217;52.586;13.442;2023-09-19T10:38:19;6.47;;;2.05;;
43626;SDS011;29217;52.586;13.442;2023-09-19T10:40:51;7.05;;;2.47;;
43626;SDS011;29217;52.586;13.442;2023-09-19T10:43:20;12.18;;;2.20;;
43626;SDS011;29217;52.586;13.442;2023-09-19T10:45:50;5.32;;;2.53;;
43626;SDS011;29217;52.586;13.442;2023-09-19T10:48:17;12.15;;;2.28;;
43626;SDS011;29217;52.586;13.442;2023-09-19T10:50:46;3.78;;;1.73;;
43626;SDS011;29217;52.586;13.442;2023-09-19T10:53:16;5.55;;;2.10;;
43626;SDS011;29217;52.586;13.442;2023-09-19T10:55:48;7.13;;;2.30;;
43626;SDS011;29217;52.586;13.442;2023-09-19T10:58:31;7.72;;;1.88;;
43626;SDS011;29217;52.586;13.442;2023-09-19T11:01:03;6.35;;;2.03;;
43626;SDS011;29217;52.586;13.442;2023-09-19T11:03:37;7.70;;;2.08;;
43626;SDS011;29217;52.586;13.442;2023-09-19T11:08:51;5.90;;;1.90;;
43626;SDS011;29217;52.586;13.442;2023-09-19T11:30:46;5.63;;;1.85;;
43626;SDS011;29217;52.586;13.442;2023-09-19T11:33:20;9.40;;;1.85;;
43626;SDS011;29217;52.586;13.442;2023-09-19T11:43:46;4.07;;;1.60;;
43626;SDS011;29217;52.586;13.442;2023-09-19T11:46:12;7.70;;;1.45;;
43626;SDS011;29217;52.586;13.442;2023-09-19T11:48:41;7.40;;;1.70;;
43626;SDS011;29217;52.586;13.442;2023-09-19T11:51:13;6.25;;;1.50;;
43626;SDS011;29217;52.586;13.442;2023-09-19T11:53:52;3.97;;;1.55;;
43626;SDS011;29217;52.586;13.442;2023-09-19T11:56:20;8.23;;;1.70;;
43626;SDS011;29217;52.586;13.442;2023-09-19T11:58:49;7.38;;;1.45;;
43626;SDS011;29217;52.586;13.442;2023-09-19T12:03:55;3.92;;;1.80;;
43626;SDS011;29217;52.586;13.442;2023-09-19T12:06:23;5.43;;;1.58;;
43626;SDS011;29217;52.586;13.442;2023-09-19T12:08:50;3.70;;;1.60;;
43626;SDS011;29217;52.586;13.442;2023-09-19T12:11:19;4.32;;;1.30;;
43626;SDS011;29217;52.586;13.442;2023-09-19T12:13:46;11.05;;;1.70;;
43626;SDS011;29217;52.586;13.442;2023-09-19T12:16:17;3.72;;;1.42;;
43626;SDS011;29217;52.586;13.442;2023-09-19T12:18:46;6.28;;;1.60;;
43626;SDS011;29217;52.586;13.442;2023-09-19T12:21:28;4.97;;;1.60;;
43626;SDS011;29217;52.586;13.442;2023-09-19T12:26:29;5.63;;;1.77;;
43626;SDS011;29217;52.586;13.442;2023-09-19T12:29:02;4.82;;;1.70;;
43626;SDS011;29217;52.586;13.442;2023-09-19T12:31:30;6.30;;;1.27;;
43626;SDS011;29217;52.586;13.442;2023-09-19T12:34:01;6.82;;;1.58;;
43626;SDS011;29217;52.586;13.442;2023-09-19T12:36:27;4.10;;;1.30;;
43626;SDS011;29217;52.586;13.442;2023-09-19T12:38:56;3.63;;;1.38;;
43626;SDS011;29217;52.586;13.442;2023-09-19T12:41:24;5.78;;;1.30;;
43626;SDS011;29217;52.586;13.442;2023-09-19T12:43:51;5.72;;;1.20;;
43626;SDS011;29217;52.586;13.442;2023-09-19T12:46:23;3.67;;;1.40;;
43626;SDS011;29217;52.586;13.442;2023-09-19T12:49:14;4.40;;;1.30;;
43626;SDS011;29217;52.586;13.442;2023-09-19T12:51:48;2.45;;;1.05;;
43626;SDS011;29217;52.586;13.442;2023-09-19T12:54:14;3.42;;;0.95;;
43626;SDS011;29217;52.586;13.442;2023-09-19T12:56:42;6.47;;;1.30;;
43626;SDS011;29217;52.586;13.442;2023-09-19T12:59:14;2.55;;;1.25;;
43626;SDS011;29217;52.586;13.442;2023-09-19T13:01:40;6.47;;;1.25;;
43626;SDS011;29217;52.586;13.442;2023-09-19T13:04:18;3.72;;;1.17;;
43626;SDS011;29217;52.586;13.442;2023-09-19T13:06:51;5.05;;;1.48;;
43626;SDS011;29217;52.586;13.442;2023-09-19T13:09:18;5.22;;;1.30;;
43626;SDS011;29217;52.586;13.442;2023-09-19T13:11:45;6.30;;;1.50;;
43626;SDS011;29217;52.586;13.442;2023-09-19T13:19:40;2.50;;;1.25;;
43626;SDS011;29217;52.586;13.442;2023-09-19T13:25:14;6.75;;;1.25;;
43626;SDS011;29217;52.586;13.442;2023-09-19T13:27:46;4.45;;;1.38;;
43626;SDS011;29217;52.586;13.442;2023-09-19T13:30:17;2.13;;;1.17;;
43626;SDS011;29217;52.586;13.442;2023-09-19T13:32:44;3.28;;;1.25;;
43626;SDS011;29217;52.586;13.442;2023-09-19T13:35:12;3.50;;;1.17;;
43626;SDS011;29217;52.586;13.442;2023-09-19T13:37:38;5.30;;;1.13;;
43626;SDS011;29217;52.586;13.442;2023-09-19T13:40:11;2.45;;;1.10;;
43626;SDS011;29217;52.586;13.442;2023-09-19T13:42:38;10.88;;;1.33;;
43626;SDS011;29217;52.586;13.442;2023-09-19T13:45:05;6.68;;;1.35;;
43626;SDS011;29217;52.586;13.442;2023-09-19T13:47:31;2.58;;;1.33;;
43626;SDS011;29217;52.586;13.442;2023-09-19T13:49:58;5.65;;;1.15;;
43626;SDS011;29217;52.586;13.442;2023-09-19T13:52:23;5.32;;;1.30;;
43626;SDS011;29217;52.586;13.442;2023-09-19T13:54:52;4.05;;;1.40;;
43626;SDS011;29217;52.586;13.442;2023-09-19T13:57:18;3.63;;;1.10;;
43626;SDS011;29217;52.586;13.442;2023-09-19T13:59:44;4.80;;;1.02;;
43626;SDS011;29217;52.586;13.442;2023-09-19T14:02:09;4.68;;;0.88;;
43626;SDS011;29217;52.586;13.442;2023-09-19T14:04:35;6.13;;;1.10;;
43626;SDS011;29217;52.586;13.442;2023-09-19T14:07:01;3.40;;;1.00;;
43626;SDS011;29217;52.586;13.442;2023-09-19T14:09:27;5.15;;;1.20;;
43626;SDS011;29217;52.586;13.442;2023-09-19T14:11:52;5.85;;;1.50;;
43626;SDS011;29217;52.586;13.442;2023-09-19T14:14:18;3.85;;;1.35;;
43626;SDS011;29217;52.586;13.442;2023-09-19T14:16:45;4.63;;;1.27;;
43626;SDS011;29217;52.586;13.442;2023-09-19T14:19:11;2.28;;;1.00;;
43626;SDS011;29217;52.586;13.442;2023-09-19T14:21:36;5.45;;;1.20;;
43626;SDS011;29217;52.586;13.442;2023-09-19T14:24:04;8.70;;;1.30;;
43626;SDS011;29217;52.586;13.442;2023-09-19T14:26:34;4.90;;;1.40;;
43626;SDS011;29217;52.586;13.442;2023-09-19T14:29:02;4.03;;;1.50;;
43626;SDS011;29217;52.586;13.442;2023-09-19T14:31:28;3.92;;;1.42;;
43626;SDS011;29217;52.586;13.442;2023-09-19T14:33:54;5.65;;;1.33;;
43626;SDS011;29217;52.586;13.442;2023-09-19T14:36:24;4.05;;;1.10;;
43626;SDS011;29217;52.586;13.442;2023-09-19T14:38:52;4.93;;;1.50;;
43626;SDS011;29217;52.586;13.442;2023-09-19T14:41:22;8.95;;;1.45;;
43626;SDS011;29217;52.586;13.442;2023-09-19T14:43:49;5.80;;;1.05;;
43626;SDS011;29217;52.586;13.442;2023-09-19T14:46:15;4.65;;;1.20;;
43626;SDS011;29217;52.586;13.442;2023-09-19T14:48:41;5.38;;;1.30;;
43626;SDS011;29217;52.586;13.442;2023-09-19T14:51:07;7.18;;;1.42;;
43626;SDS011;29217;52.586;13.442;2023-09-19T14:53:34;3.80;;;1.40;;
43626;SDS011;29217;52.586;13.442;2023-09-19T14:56:03;3.13;;;1.20;;
43626;SDS011;29217;52.586;13.442;2023-09-19T14:58:31;2.72;;;1.40;;
43626;SDS011;29217;52.586;13.442;2023-09-19T15:01:06;8.80;;;1.63;;
43626;SDS011;29217;52.586;13.442;2023-09-19T15:03:33;6.47;;;1.58;;
43626;SDS011;29217;52.586;13.442;2023-09-19T15:06:02;6.95;;;1.30;;
43626;SDS011;29217;52.586;13.442;2023-09-19T15:08:30;7.97;;;1.40;;
43626;SDS011;29217;52.586;13.442;2023-09-19T15:10:56;4.38;;;1.42;;
43626;SDS011;29217;52.586;13.442;2023-09-19T15:13:23;2.97;;;1.30;;
43626;SDS011;29217;52.586;13.442;2023-09-19T15:15:57;7.32;;;1.30;;
43626;SDS011;29217;52.586;13.442;2023-09-19T15:18:36;9.23;;;1.90;;
43626;SDS011;29217;52.586;13.442;2023-09-19T15:21:09;2.67;;;1.38;;
43626;SDS011;29217;52.586;13.442;2023-09-19T15:23:36;1.75;;;1.10;;
43626;SDS011;29217;52.586;13.442;2023-09-19T15:26:13;3.25;;;1.50;;
43626;SDS011;29217;52.586;13.442;2023-09-19T15:28:42;8.15;;;1.83;;
43626;SDS011;29217;52.586;13.442;2023-09-19T15:31:08;3.60;;;1.60;;
43626;SDS011;29217;52.586;13.442;2023-09-19T15:33:38;6.75;;;1.50;;
43626;SDS011;29217;52.586;13.442;2023-09-19T15:36:08;5.68;;;1.30;;
43626;SDS011;29217;52.586;13.442;2023-09-19T15:41:22;11.20;;;1.75;;
43626;SDS011;29217;52.586;13.442;2023-09-19T15:43:48;9.23;;;1.40;;
43626;SDS011;29217;52.586;13.442;2023-09-19T15:46:13;3.90;;;1.30;;
43626;SDS011;29217;52.586;13.442;2023-09-19T15:48:40;2.47;;;1.40;;
43626;SDS011;29217;52.586;13.442;2023-09-19T15:51:06;3.28;;;1.40;;